Latest Weather Observations for Moomba Airport

IDS60801

Issued at 7:01 pm CDT Thursday 11 February 2016 (issued every 30 minutes, with the page automatically refreshed every 10 minutes)

About weather observations | Map of weather stations | Latest weather observations for SA | Other Formats
Station Details ID: 017123 Name: MOOMBA AIRPORT Lat: -28.10 Lon: 140.20 Height: 37.8 m
Data from the previous 72 hours. | See also: Recent months at Moomba Airport
Date/Time
CDT
Temp
°C
App
Temp
°C
Dew
Point
Rel
Hum
%
Delta-T
°C
Wind Press
QNH
hPa
Press
MSL
hPa
Rain
since 9 am
mm
Dir
 
Spd
km/h
Gust
km/h
Spd
kts
Gust
kts
11/07:00pm 40.3 37.1 2.8 10 20.0 SSW 9 17 5 9 1006.9 1006.6 0.0
11/06:30pm 40.5 37.7 3.0 10 20.1 SSE 7 17 4 9 1006.8 1006.5 0.0
11/06:00pm 40.5 37.3 3.0 10 20.1 S 9 15 5 8 1006.6 1006.3 0.0
11/05:30pm 40.5 36.9 3.0 10 20.1 SSW 11 17 6 9 1006.6 1006.3 0.0
11/05:00pm 40.6 37.8 3.1 10 20.1 SE 7 17 4 9 1006.7 1006.4 0.0
11/04:30pm 40.8 36.5 3.2 10 20.2 WSW 15 24 8 13 1006.9 1006.6 0.0
11/04:00pm 40.7 37.1 3.1 10 20.2 WSW 11 20 6 11 1007.2 1006.9 0.0
11/03:30pm 40.1 37.2 2.7 10 19.9 NE 7 15 4 8 1007.5 1007.2 0.0
11/03:00pm 40.5 37.2 4.3 11 19.8 SW 11 22 6 12 1008.0 1007.7 0.0
11/02:30pm 40.1 37.1 4.0 11 19.6 WSW 9 19 5 10 1008.5 1008.2 0.0
11/02:00pm 40.2 37.2 4.1 11 19.6 WSW 9 13 5 7 1009.1 1008.8 0.0
11/01:30pm 39.6 36.9 3.7 11 19.3 NNE 7 13 4 7 1009.6 1009.3 0.0
11/01:00pm 38.9 36.0 4.4 12 18.7 WSW 9 19 5 10 1010.0 1009.7 0.0
11/12:30pm 38.2 34.6 5.0 13 18.1 SW 13 22 7 12 1010.4 1010.1 0.0
11/12:00pm 37.7 34.6 5.6 14 17.6 S 11 17 6 9 1010.6 1010.3 0.0
11/11:30am 37.1 34.3 5.2 14 17.3 SSE 9 15 5 8 1010.9 1010.6 0.0
11/11:00am 36.3 33.4 4.6 14 17.0 WSW 9 17 5 9 1011.2 1010.9 0.0
11/10:30am 35.9 33.1 5.2 15 16.6 SW 9 15 5 8 1011.4 1011.1 0.0
11/10:00am 34.8 32.6 5.3 16 15.9 WSW 6 11 3 6 1011.3 1011.0 0.0
11/09:30am 33.8 31.4 5.4 17 15.2 NW 7 9 4 5 1011.1 1010.8 0.0
11/09:00am 32.3 29.6 5.7 19 14.2 WNW 9 15 5 8 1010.8 1010.5 0.0
11/08:30am 30.5 27.7 5.0 20 13.3 W 9 13 5 7 1010.7 1010.4 0.0
11/08:00am 28.4 26.0 5.3 23 12.0 W 7 9 4 5 1010.3 1010.0 0.0
11/07:30am 26.1 23.3 5.1 26 10.7 W 9 11 5 6 1010.0 1009.7 0.0
11/07:00am 26.3 23.9 5.3 26 10.8 W 7 11 4 6 1009.6 1009.3 0.0
11/06:30am 27.0 25.6 5.3 25 11.2 W 2 6 1 3 1009.2 1008.9 0.0
11/06:00am 27.3 24.2 5.6 25 11.3 NNW 11 15 6 8 1008.8 1008.5 0.0
11/05:30am 26.8 23.7 5.7 26 10.9 N 11 15 6 8 1008.5 1008.2 0.0
11/05:00am 27.2 24.1 5.5 25 11.2 N 11 13 6 7 1008.1 1007.8 0.0
11/04:30am 27.6 24.2 5.8 25 11.4 N 13 13 7 7 1008.0 1007.7 0.0
11/04:00am 26.9 23.5 5.8 26 10.9 N 13 13 7 7 1007.9 1007.6 0.0
11/03:30am 27.3 23.9 6.1 26 11.1 N 13 15 7 8 1007.8 1007.5 0.0
11/03:00am 27.2 23.8 6.0 26 11.1 N 13 15 7 8 1008.0 1007.7 0.0
11/02:30am 28.5 25.2 6.6 25 11.6 N 13 15 7 8 1008.2 1007.9 0.0
11/02:00am 29.0 25.7 6.4 24 12.0 N 13 15 7 8 1008.5 1008.2 0.0
11/01:30am 28.1 24.6 5.6 24 11.7 N 13 13 7 7 1008.7 1008.4 0.0
11/01:00am 29.0 25.7 6.4 24 12.0 NNE 13 15 7 8 1009.0 1008.7 0.0
11/12:30am 28.8 26.0 5.0 22 12.3 NNE 9 9 5 5 1009.4 1009.1 0.0
11/12:00am 29.7 27.3 5.1 21 12.8 ENE 7 9 4 5 1009.5 1009.2 0.0
 
Date/Time
CDT
Temp
°C
App
Temp
°C
Dew
Point
Rel
Hum
%
Delta-T
°C
Wind Press
QNH
hPa
Press
MSL
hPa
Rain
since 9 am
mm
Dir
 
Spd
km/h
Gust
km/h
Spd
kts
Gust
kts
10/11:30pm 30.2 27.3 4.8 20 13.2 E 9 11 5 6 1009.7 1009.4 0.0
10/11:00pm 31.1 27.8 4.8 19 13.7 E 11 13 6 7 1009.8 1009.5 0.0
10/10:30pm 31.2 28.3 4.9 19 13.8 E 9 11 5 6 1009.8 1009.5 0.0
10/10:00pm 32.7 29.5 5.3 18 14.6 ESE 11 15 6 8 1009.7 1009.4 0.0
10/09:30pm 34.1 31.4 5.6 17 15.4 ESE 9 13 5 7 1009.5 1009.2 0.0
10/09:00pm 33.9 31.2 5.4 17 15.3 E 9 13 5 7 1009.3 1009.0 0.0
10/08:30pm 35.4 32.4 5.8 16 16.1 E 11 13 6 7 1009.0 1008.7 0.0
10/08:00pm 36.9 33.5 6.0 15 17.0 E 13 17 7 9 1008.7 1008.4 0.0
10/07:30pm 38.0 33.8 5.9 14 17.7 ESE 17 24 9 13 1008.5 1008.2 0.0
10/07:00pm 38.2 34.8 6.0 14 17.8 SE 13 19 7 10 1008.2 1007.9 0.0
10/06:30pm 38.8 34.2 6.5 14 18.1 ESE 20 28 11 15 1008.0 1007.7 0.0
10/06:00pm 39.2 34.6 5.7 13 18.6 SE 19 32 10 17 1007.8 1007.5 0.0
10/05:30pm 39.7 34.4 5.0 12 19.1 E 22 33 12 18 1007.8 1007.5 0.0
10/05:00pm 38.8 33.9 4.3 12 18.7 E 19 32 10 17 1007.9 1007.6 0.0
10/04:30pm 39.2 34.0 3.4 11 19.2 ESE 20 33 11 18 1008.1 1007.8 0.0
10/04:00pm 38.7 33.6 4.2 12 18.6 SE 20 37 11 20 1008.2 1007.9 0.0
10/03:30pm 38.3 33.4 5.0 13 18.2 ESE 20 35 11 19 1008.5 1008.2 0.0
10/03:00pm 40.4 35.1 6.7 13 19.1 ESE 24 33 13 18 1008.8 1008.5 0.0
10/02:30pm 38.7 33.5 5.4 13 18.3 SE 22 41 12 22 1009.3 1009.0 0.0
10/02:00pm 38.7 33.9 5.4 13 18.3 ESE 20 39 11 21 1009.7 1009.4 0.0
10/01:30pm 39.5 33.9 7.1 14 18.3 ESE 26 43 14 23 1010.2 1009.9 0.0
10/01:00pm 37.9 34.4 8.6 17 16.8 ESE 17 28 9 15 1010.6 1010.3 0.0
10/12:30pm 37.9 34.6 9.5 18 16.5 E 17 24 9 13 1011.1 1010.8 0.0
10/12:00pm 37.1 33.7 10.4 20 15.7 ENE 19 28 10 15 1011.5 1011.2 0.0
10/11:30am 37.0 33.4 11.8 22 15.1 NE 22 37 12 20 1011.9 1011.6 0.0
10/11:00am 35.9 31.8 12.8 25 14.0 NE 26 35 14 19 1012.2 1011.9 0.0
10/10:30am 35.5 31.7 12.5 25 13.9 NE 24 30 13 16 1012.2 1011.9 0.0
10/10:00am 34.5 30.2 12.2 26 13.3 NE 26 30 14 16 1012.2 1011.9 0.0
10/09:30am 33.2 28.2 12.2 28 12.5 NE 30 35 16 19 1012.1 1011.8 0.0
10/09:00am 32.3 27.6 12.0 29 12.0 NE 28 33 15 18 1011.9 1011.6 0.0
10/08:30am 30.5 27.1 10.5 29 11.4 ENE 19 24 10 13 1011.7 1011.4 0.0
10/08:00am 27.4 24.7 8.8 31 10.2 E 13 19 7 10 1011.5 1011.2 0.0
10/07:30am 25.4 22.3 7.1 31 9.6 E 13 15 7 8 1011.2 1010.9 0.0
10/07:00am 24.8 21.3 7.0 32 9.3 E 15 17 8 9 1010.8 1010.5 0.0
10/06:30am 25.3 21.6 6.5 30 9.8 E 15 19 8 10 1010.3 1010.0 0.0
10/06:00am 25.3 21.2 6.0 29 10.0 E 17 20 9 11 1010.2 1009.9 0.0
10/05:30am 25.3 21.1 5.5 28 10.1 E 17 19 9 10 1009.9 1009.6 0.0
10/05:00am 26.0 22.0 5.0 26 10.7 ESE 15 19 8 10 1009.8 1009.5 0.0
10/04:30am 26.2 22.1 4.6 25 10.9 ESE 15 17 8 9 1009.8 1009.5 0.0
10/04:00am 26.0 22.2 3.9 24 11.0 ESE 13 15 7 8 1009.8 1009.5 0.0
10/03:30am 25.5 22.0 3.5 24 10.9 ESE 11 13 6 7 1009.9 1009.6 0.0
10/03:00am 25.4 21.8 2.8 23 11.0 ESE 11 11 6 6 1010.0 1009.7 0.0
10/02:30am 27.1 23.1 2.9 21 11.9 ESE 13 15 7 8 1010.2 1009.9 0.0
10/02:00am 29.1 25.5 3.1 19 13.0 SE 11 13 6 7 1010.2 1009.9 0.0
10/01:30am 30.0 26.0 3.1 18 13.6 SE 13 19 7 10 1010.4 1010.1 0.0
10/01:00am 30.4 26.0 2.6 17 13.9 SE 15 19 8 10 1010.7 1010.4 0.0
10/12:30am 30.7 26.5 3.7 18 13.8 SE 15 19 8 10 1010.9 1010.6 0.0
10/12:00am 30.2 26.8 4.0 19 13.4 SE 11 15 6 8 1011.0 1010.7 0.0
 
Date/Time
CDT
Temp
°C
App
Temp
°C
Dew
Point
Rel
Hum
%
Delta-T
°C
Wind Press
QNH
hPa
Press
MSL
hPa
Rain
since 9 am
mm
Dir
 
Spd
km/h
Gust
km/h
Spd
kts
Gust
kts
09/11:30pm 30.5 27.2 4.3 19 13.5 ESE 11 13 6 7 1011.1 1010.8 0.0
09/11:00pm 31.9 28.2 4.6 18 14.3 ESE 13 17 7 9 1011.2 1010.9 0.0
09/10:30pm 32.9 28.7 5.5 18 14.6 SE 17 20 9 11 1011.1 1010.8 0.0
09/10:00pm 32.6 29.0 5.2 18 14.5 SE 13 15 7 8 1010.9 1010.6 0.0
09/09:30pm 32.7 29.2 5.3 18 14.6 ESE 13 15 7 8 1010.7 1010.4 0.0
09/09:00pm 33.7 29.8 5.3 17 15.2 E 15 17 8 9 1010.4 1010.1 0.0
09/08:30pm 35.0 30.7 5.4 16 16.0 E 17 20 9 11 1010.2 1009.9 0.0
09/08:00pm 36.2 31.4 5.5 15 16.7 ESE 20 26 11 14 1010.0 1009.7 0.0
09/07:30pm 37.2 32.0 5.3 14 17.4 E 22 30 12 16 1009.8 1009.5 0.0
09/07:00pm 38.2 31.9 1.3 10 19.0 ESE 24 30 13 16 1009.7 1009.4 0.0
09/06:30pm 38.7 31.6 -1.4 8 19.9 ESE 26 35 14 19 1009.7 1009.4 0.0
09/06:00pm 39.1 31.6 -1.1 8 20.1 ESE 28 35 15 19 1009.6 1009.3 0.0
09/05:30pm 39.3 32.2 -1.0 8 20.2 SE 26 37 14 20 1009.6 1009.3 0.0
09/05:00pm 38.9 32.4 0.3 9 19.6 SE 24 35 13 19 1009.7 1009.4 0.0
09/04:30pm 38.9 32.8 0.3 9 19.7 SE 22 39 12 21 1010.0 1009.7 0.0
09/04:00pm 40.1 34.0 2.7 10 19.9 ESE 24 33 13 18 1010.3 1010.0 0.0
09/03:30pm 39.3 33.3 3.4 11 19.2 SE 24 39 13 21 1010.5 1010.2 0.0
09/03:00pm 39.3 33.7 3.4 11 19.2 SSE 22 35 12 19 1011.0 1010.7 0.0
09/02:30pm 39.0 33.0 3.2 11 19.1 SE 24 41 13 22 1011.6 1011.3 0.0
09/02:00pm 37.8 32.1 4.7 13 17.9 SE 24 41 13 22 1011.9 1011.6 0.0
09/01:30pm 37.9 31.6 5.8 14 17.7 SE 28 39 15 21 1012.4 1012.1 0.0
09/01:00pm 38.2 33.5 5.0 13 18.1 SE 19 35 10 19 1012.7 1012.4 0.0
09/12:30pm 37.8 31.9 5.7 14 17.6 SE 26 39 14 21 1013.1 1012.8 0.0
09/12:00pm 36.6 31.6 4.8 14 17.1 ESE 20 30 11 16 1013.5 1013.2 0.0
09/11:30am 37.6 30.7 4.5 13 17.8 E 30 39 16 21 1013.8 1013.5 0.0
09/11:00am 36.3 30.9 6.5 16 16.5 ENE 24 32 13 17 1014.1 1013.9 0.0
09/10:30am 35.6 30.5 7.6 18 15.7 E 24 30 13 16 1014.2 1014.0 0.0
09/10:00am 34.6 29.5 7.6 19 15.0 E 24 30 13 16 1014.2 1014.0 0.0
09/09:30am 33.1 28.1 7.9 21 14.0 E 24 30 13 16 1014.1 1013.9 0.0
09/09:00am 31.7 26.9 7.4 22 13.3 E 22 28 12 15 1014.0 1013.8 0.0
09/08:30am 29.7 25.3 7.6 25 12.0 ESE 20 24 11 13 1013.8 1013.5 0.0
09/08:00am 27.5 23.7 7.4 28 10.8 ESE 17 19 9 10 1013.5 1013.2 0.0
09/07:30am 26.0 22.1 7.1 30 10.0 SE 17 19 9 10 1013.3 1013.0 0.0
09/07:00am 25.3 21.6 6.5 30 9.8 ESE 15 17 8 9 1012.7 1012.4 0.0
09/06:30am 25.2 22.0 6.9 31 9.6 ESE 13 15 7 8 1012.4 1012.1 0.0
09/06:00am 25.8 22.7 7.4 31 9.8 ESE 13 15 7 8 1012.1 1011.8 0.0
09/05:30am 26.6 23.6 7.6 30 10.2 ESE 13 17 7 9 1011.8 1011.5 0.0
09/05:00am 27.5 24.0 7.4 28 10.8 SE 15 19 8 10 1011.6 1011.3 0.0
09/04:30am 27.8 24.4 7.6 28 10.9 SE 15 20 8 11 1011.4 1011.1 0.0
09/04:00am 28.4 25.4 7.6 27 11.2 SE 13 19 7 10 1011.4 1011.1 0.0
09/03:30am 29.2 25.1 7.7 26 11.7 SE 19 26 10 14 1011.4 1011.1 0.0
09/03:00am 29.2 25.4 7.7 26 11.7 SE 17 20 9 11 1011.4 1011.1 0.0
09/02:30am 29.7 26.4 8.2 26 11.8 SE 15 19 8 10 1011.4 1011.1 0.0
09/02:00am 29.7 26.8 8.2 26 11.8 ESE 13 15 7 8 1011.5 1011.2 0.0
09/01:30am 30.0 27.5 8.4 26 11.9 SE 11 15 6 8 1011.8 1011.5 0.0
09/01:00am 29.7 27.6 8.2 26 11.8 ESE 9 11 5 6 1012.0 1011.7 0.0
09/12:30am 30.1 27.7 8.5 26 11.9 ESE 11 13 6 7 1012.1 1011.8 0.0
09/12:00am 32.2 28.2 8.4 23 13.3 ESE 19 22 10 12 1012.3 1012.0 0.0
 
Date/Time
CDT
Temp
°C
App
Temp
°C
Dew
Point
Rel
Hum
%
Delta-T
°C
Wind Press
QNH
hPa
Press
MSL
hPa
Rain
since 9 am
mm
Dir
 
Spd
km/h
Gust
km/h
Spd
kts
Gust
kts
08/11:30pm 32.1 28.9 8.4 23 13.2 ESE 15 17 8 9 1012.4 1012.1 0.0
08/11:00pm 33.3 29.8 8.7 22 13.9 SE 17 20 9 11 1012.5 1012.2 0.0
08/10:30pm 34.0 30.8 8.6 21 14.3 SE 15 19 8 10 1012.3 1012.0 0.0
08/10:00pm 34.7 31.7 9.2 21 14.6 SE 15 19 8 10 1012.0 1011.7 0.0
08/09:30pm 35.7 32.3 9.3 20 15.2 SE 17 22 9 12 1011.7 1011.4 0.0
08/09:00pm 35.8 33.4 11.4 23 14.5 ESE 15 20 8 11 1011.3 1011.0 0.0
08/08:30pm 36.0 33.7 11.6 23 14.5 E 15 20 8 11 1011.0 1010.7 0.0
08/08:00pm 36.7 33.0 11.5 22 15.0 ENE 22 30 12 16 1010.6 1010.3 0.0
08/07:30pm 36.8 33.2 12.9 24 14.6 ESE 24 35 13 19 1010.2 1009.9 0.0

Other Formats:

Comma delimited format used in spreadsheet applications
http://www.bom.gov.au/fwo/IDS60801/IDS60801.95481.axf

JavaScript Object Notation format (JSON) in row-major order
http://www.bom.gov.au/fwo/IDS60801/IDS60801.95481.json